createdAt,value
2022-08-26T00:01:57.730Z,24.80
2022-08-26T00:04:31.971Z,24.77
2022-08-26T00:07:05.266Z,24.75
2022-08-26T00:09:39.087Z,24.71
2022-08-26T00:12:12.668Z,24.69
2022-08-26T00:14:44.992Z,24.67
2022-08-26T00:17:16.978Z,24.65
2022-08-26T00:19:48.930Z,24.60
2022-08-26T00:22:23.044Z,24.57
2022-08-26T00:24:56.451Z,24.55
2022-08-26T00:27:28.373Z,24.52
2022-08-26T00:30:01.249Z,24.51
2022-08-26T00:32:33.613Z,24.49
2022-08-26T00:35:07.513Z,24.47
2022-08-26T00:37:41.781Z,24.46
2022-08-26T00:40:18.043Z,24.44
2022-08-26T00:42:50.113Z,24.40
2022-08-26T00:45:22.808Z,24.40
2022-08-26T00:48:02.037Z,24.40
2022-08-26T00:50:38.809Z,24.36
2022-08-26T00:53:23.813Z,24.37
2022-08-26T00:56:02.605Z,24.34
2022-08-26T00:58:36.965Z,24.33
2022-08-26T01:01:09.929Z,24.34
2022-08-26T01:03:43.857Z,24.35
2022-08-26T01:06:16.264Z,24.37
2022-08-26T01:08:48.868Z,24.40
2022-08-26T01:11:20.904Z,24.41
2022-08-26T01:13:54.969Z,24.43
2022-08-26T01:16:27.374Z,24.44
2022-08-26T01:19:05.341Z,24.43
2022-08-26T01:21:50.512Z,24.43
2022-08-26T01:24:24.154Z,24.43
2022-08-26T01:27:02.698Z,24.42
2022-08-26T01:29:36.863Z,24.43
2022-08-26T01:32:10.871Z,24.40
2022-08-26T01:34:43.111Z,24.38
2022-08-26T01:37:21.008Z,24.36
2022-08-26T01:39:57.330Z,24.33
2022-08-26T01:42:29.956Z,24.28
2022-08-26T01:45:12.086Z,24.26
2022-08-26T01:47:44.859Z,24.24
2022-08-26T01:50:27.535Z,24.20
2022-08-26T01:53:03.358Z,24.16
2022-08-26T01:55:37.678Z,24.15
2022-08-26T01:58:17.541Z,24.12
2022-08-26T02:00:51.760Z,24.10
2022-08-26T02:03:24.338Z,24.07
2022-08-26T02:06:03.887Z,24.06
2022-08-26T02:08:39.693Z,24.05
2022-08-26T02:11:12.486Z,24.01
2022-08-26T02:13:47.602Z,23.99
2022-08-26T02:16:22.901Z,24.00
2022-08-26T02:18:57.840Z,23.95
2022-08-26T02:21:30.511Z,23.90
2022-08-26T02:24:11.448Z,23.85
2022-08-26T02:26:45.460Z,23.81
2022-08-26T02:29:25.714Z,23.81
2022-08-26T02:31:57.563Z,23.77
2022-08-26T02:34:35.027Z,23.74
2022-08-26T02:37:08.939Z,23.72
2022-08-26T02:39:42.967Z,23.71
2022-08-26T02:42:14.834Z,23.69
2022-08-26T02:44:47.131Z,23.68
2022-08-26T02:47:19.129Z,23.67
2022-08-26T02:49:51.804Z,23.65
2022-08-26T02:52:24.153Z,23.64
2022-08-26T02:54:56.124Z,23.62
2022-08-26T02:57:28.366Z,23.62
2022-08-26T03:00:01.260Z,23.58
2022-08-26T03:02:34.366Z,23.54
2022-08-26T03:05:07.379Z,23.53
2022-08-26T03:07:40.051Z,23.54
2022-08-26T03:10:16.520Z,23.54
2022-08-26T03:12:48.894Z,23.53
2022-08-26T03:15:21.033Z,23.52
2022-08-26T03:17:53.022Z,23.50
2022-08-26T03:20:25.292Z,23.50
2022-08-26T03:22:57.241Z,23.47
2022-08-26T03:25:29.303Z,23.44
2022-08-26T03:28:01.221Z,23.41
2022-08-26T03:30:45.039Z,23.40
2022-08-26T03:33:17.901Z,23.36
2022-08-26T03:35:50.864Z,23.34
2022-08-26T03:38:25.150Z,23.32
2022-08-26T03:40:57.130Z,23.32
2022-08-26T03:43:29.119Z,23.29
2022-08-26T03:46:11.353Z,23.25
2022-08-26T03:48:44.063Z,23.21
2022-08-26T03:51:19.095Z,23.21
2022-08-26T03:53:51.122Z,23.20
2022-08-26T03:56:23.086Z,23.19
2022-08-26T03:58:56.091Z,23.18
2022-08-26T04:01:28.679Z,23.18
2022-08-26T04:04:01.715Z,23.20
2022-08-26T04:06:38.286Z,23.17
2022-08-26T04:09:17.906Z,23.16
2022-08-26T04:11:50.340Z,23.15
2022-08-26T04:14:24.852Z,23.14
2022-08-26T04:16:56.893Z,23.12
2022-08-26T04:19:29.340Z,23.13
2022-08-26T04:22:01.610Z,23.13
2022-08-26T04:24:33.637Z,23.15
2022-08-26T04:27:08.651Z,23.15
2022-08-26T04:29:41.501Z,23.16
2022-08-26T04:32:13.504Z,23.16
2022-08-26T04:34:45.615Z,23.17
2022-08-26T04:37:18.467Z,23.17
2022-08-26T04:39:54.514Z,23.18
2022-08-26T04:42:26.483Z,23.16
2022-08-26T04:44:58.867Z,23.14
2022-08-26T04:47:32.474Z,23.12
2022-08-26T04:50:06.964Z,23.12
2022-08-26T04:52:39.457Z,23.11
2022-08-26T04:55:11.492Z,23.10
2022-08-26T04:57:43.647Z,23.09
2022-08-26T05:00:15.785Z,23.07
2022-08-26T05:02:48.213Z,23.09
2022-08-26T05:05:23.541Z,23.08
2022-08-26T05:07:55.573Z,23.09
2022-08-26T05:10:27.628Z,23.10
2022-08-26T05:13:00.385Z,23.12
2022-08-26T05:15:32.385Z,23.12
2022-08-26T05:18:05.747Z,23.12
2022-08-26T05:20:41.398Z,23.12
2022-08-26T05:23:14.816Z,23.14
2022-08-26T05:25:48.443Z,23.15
2022-08-26T05:28:21.885Z,23.15
2022-08-26T05:30:55.545Z,23.17
2022-08-26T05:33:27.574Z,23.16
2022-08-26T05:36:07.544Z,23.18
2022-08-26T05:38:42.289Z,23.20
2022-08-26T05:41:34.161Z,23.21
2022-08-26T05:44:11.179Z,23.23
2022-08-26T05:46:44.720Z,23.25
2022-08-26T05:49:17.018Z,23.30
2022-08-26T05:51:49.241Z,23.35
2022-08-26T05:54:22.629Z,23.37
2022-08-26T05:56:54.522Z,23.35
2022-08-26T05:59:27.061Z,23.35
2022-08-26T06:01:59.728Z,23.40
2022-08-26T06:04:31.958Z,23.43
2022-08-26T06:07:03.965Z,23.46
2022-08-26T06:09:39.289Z,23.49
2022-08-26T06:12:11.303Z,23.54
2022-08-26T06:14:43.227Z,23.62
2022-08-26T06:17:16.399Z,23.66
2022-08-26T06:19:50.138Z,23.72
2022-08-26T06:22:40.924Z,23.77
2022-08-26T06:25:31.481Z,23.81
2022-08-26T06:28:03.901Z,23.86
2022-08-26T06:30:40.648Z,23.88
2022-08-26T06:33:13.901Z,23.89
2022-08-26T06:35:47.025Z,23.94
2022-08-26T06:38:20.288Z,23.97
2022-08-26T06:40:54.756Z,24.06
2022-08-26T06:43:28.194Z,24.12
2022-08-26T06:46:02.952Z,24.21
2022-08-26T06:48:37.424Z,24.30
2022-08-26T06:51:15.351Z,24.39
2022-08-26T06:53:48.782Z,24.47
2022-08-26T06:56:27.550Z,24.55
2022-08-26T06:59:00.078Z,24.61
2022-08-26T07:01:34.726Z,24.67
2022-08-26T07:04:10.553Z,24.72
2022-08-26T07:06:47.088Z,24.73
2022-08-26T07:09:19.107Z,24.79
2022-08-26T07:11:52.249Z,24.88
2022-08-26T07:14:26.220Z,25.07
2022-08-26T07:16:59.451Z,25.23
2022-08-26T07:19:31.898Z,25.37
2022-08-26T07:22:06.469Z,25.47
2022-08-26T07:24:44.161Z,25.59
2022-08-26T07:27:17.269Z,25.68
2022-08-26T07:29:49.287Z,25.81
2022-08-26T07:32:22.851Z,25.92
2022-08-26T07:34:55.157Z,26.01
2022-08-26T07:37:27.021Z,26.10
2022-08-26T07:40:04.639Z,26.15
2022-08-26T07:42:36.576Z,26.24
2022-08-26T07:45:08.741Z,26.30
2022-08-26T07:47:40.843Z,26.38
2022-08-26T07:50:13.471Z,26.46
2022-08-26T07:52:47.543Z,26.52
2022-08-26T07:55:19.543Z,26.61
2022-08-26T07:57:51.671Z,26.71
2022-08-26T08:00:23.944Z,26.78
2022-08-26T08:02:56.078Z,26.88
2022-08-26T08:05:33.736Z,26.93
2022-08-26T08:08:26.889Z,26.95
2022-08-26T08:11:00.138Z,26.96
2022-08-26T08:13:32.112Z,26.94
2022-08-26T08:16:05.258Z,26.90
2022-08-26T08:18:37.147Z,26.89
2022-08-26T08:21:21.730Z,26.91
2022-08-26T08:23:57.710Z,26.93
2022-08-26T08:26:29.735Z,26.96
2022-08-26T08:29:01.696Z,27.04
2022-08-26T08:34:28.894Z,27.24
2022-08-26T08:37:01.169Z,27.29
2022-08-26T08:39:35.668Z,27.34
2022-08-26T08:42:45.660Z,27.49
2022-08-26T08:45:23.123Z,27.57
2022-08-26T08:47:58.022Z,27.62
2022-08-26T08:50:33.837Z,27.67
2022-08-26T08:53:15.156Z,27.71
2022-08-26T08:56:05.163Z,27.76
2022-08-26T08:58:49.616Z,27.83
2022-08-26T09:01:28.371Z,27.88
2022-08-26T09:04:22.018Z,27.95
2022-08-26T09:09:37.060Z,28.14
2022-08-26T09:12:15.984Z,28.19
2022-08-26T09:14:49.613Z,28.31
2022-08-26T09:17:26.139Z,28.37
2022-08-26T09:20:09.468Z,28.44
2022-08-26T09:22:44.303Z,28.48
2022-08-26T09:25:16.534Z,28.51
2022-08-26T09:27:52.808Z,28.54
2022-08-26T09:30:34.437Z,28.62
2022-08-26T09:33:10.863Z,28.73
2022-08-26T09:35:47.461Z,28.81
2022-08-26T09:38:27.994Z,28.83
2022-08-26T09:41:05.074Z,28.82
2022-08-26T09:43:37.694Z,28.83
2022-08-26T09:46:19.552Z,28.83
2022-08-26T09:48:53.024Z,28.83
2022-08-26T09:51:31.512Z,28.86
2022-08-26T09:54:05.691Z,28.89
2022-08-26T09:56:40.306Z,28.93
2022-08-26T09:59:12.250Z,28.91
2022-08-26T10:01:45.205Z,28.84
2022-08-26T10:04:22.562Z,28.78
2022-08-26T10:06:58.054Z,28.72
2022-08-26T10:09:34.473Z,28.64
2022-08-26T10:12:13.746Z,28.57
2022-08-26T10:14:55.465Z,28.55
2022-08-26T10:17:38.235Z,28.55
2022-08-26T10:20:24.003Z,28.54
2022-08-26T10:23:09.505Z,28.51
2022-08-26T10:25:57.966Z,28.52
2022-08-26T10:28:35.818Z,28.56
2022-08-26T10:31:27.615Z,28.59
2022-08-26T10:34:00.784Z,28.62
2022-08-26T10:37:15.559Z,28.62
2022-08-26T10:39:57.222Z,28.66
2022-08-26T10:42:49.274Z,28.71
2022-08-26T10:45:25.387Z,28.75
2022-08-26T10:48:03.504Z,28.77
2022-08-26T10:50:40.516Z,28.78
2022-08-26T10:53:51.410Z,28.82
2022-08-26T10:56:39.143Z,28.87
2022-08-26T10:59:16.809Z,28.91
2022-08-26T11:02:10.264Z,28.96
2022-08-26T11:04:48.210Z,29.02
2022-08-26T11:07:39.884Z,29.13
2022-08-26T11:10:21.368Z,29.26
2022-08-26T11:12:54.894Z,29.37
2022-08-26T11:15:29.198Z,29.45
2022-08-26T11:18:06.106Z,29.52
2022-08-26T11:20:42.107Z,29.65
2022-08-26T11:23:23.158Z,29.81
2022-08-26T11:26:00.971Z,30.01
2022-08-26T11:28:44.768Z,30.18
2022-08-26T11:31:25.762Z,30.45
2022-08-26T11:34:04.216Z,30.88
2022-08-26T11:36:47.891Z,31.42
2022-08-26T11:39:31.991Z,31.63
2022-08-26T11:42:24.737Z,31.77
2022-08-26T11:45:03.546Z,32.42
2022-08-26T11:47:37.756Z,33.21
2022-08-26T11:50:13.374Z,34.00
2022-08-26T11:52:55.753Z,34.78
2022-08-26T11:55:29.840Z,35.51
2022-08-26T11:58:05.040Z,36.16
2022-08-26T12:00:55.089Z,36.80
2022-08-26T12:03:48.509Z,37.43
2022-08-26T12:06:29.641Z,38.07
2022-08-26T12:09:09.719Z,38.57
2022-08-26T12:11:41.997Z,38.89
2022-08-26T12:14:24.334Z,38.81
2022-08-26T12:17:12.000Z,38.20
2022-08-26T12:19:44.425Z,37.51
2022-08-26T12:22:24.071Z,36.85
2022-08-26T12:25:05.292Z,36.27
2022-08-26T12:27:40.225Z,35.82
2022-08-26T12:30:19.207Z,35.60
2022-08-26T12:33:03.552Z,35.60
2022-08-26T12:35:56.584Z,35.76
2022-08-26T12:38:30.151Z,35.93
2022-08-26T12:41:02.623Z,35.97
2022-08-26T12:43:42.360Z,35.85
2022-08-26T12:46:17.476Z,35.61
2022-08-26T12:48:49.748Z,35.28
2022-08-26T12:51:30.101Z,34.90
2022-08-26T12:54:06.656Z,34.60
2022-08-26T12:56:39.849Z,34.28
2022-08-26T12:59:25.737Z,33.99
2022-08-26T13:01:58.892Z,33.72
2022-08-26T13:04:38.762Z,33.45
2022-08-26T13:07:25.665Z,33.18
2022-08-26T13:09:59.043Z,33.00
2022-08-26T13:12:34.901Z,32.75
2022-08-26T13:15:08.225Z,32.55
2022-08-26T13:17:40.403Z,32.41
2022-08-26T13:20:12.283Z,32.30
2022-08-26T13:22:44.706Z,32.22
2022-08-26T13:25:24.025Z,32.18
2022-08-26T13:27:56.690Z,32.12
2022-08-26T13:30:29.577Z,32.07
2022-08-26T13:33:02.862Z,32.01
2022-08-26T13:35:36.021Z,32.02
2022-08-26T13:38:14.654Z,32.03
2022-08-26T13:41:06.039Z,32.08
2022-08-26T13:43:38.107Z,32.14
2022-08-26T13:46:10.490Z,32.17
2022-08-26T13:48:42.466Z,32.18
2022-08-26T13:51:18.630Z,32.17
2022-08-26T13:53:51.286Z,32.16
2022-08-26T13:56:24.259Z,32.12
2022-08-26T13:58:57.370Z,32.07
2022-08-26T14:01:30.694Z,32.05
2022-08-26T14:04:03.348Z,32.10
2022-08-26T14:06:35.785Z,32.16
2022-08-26T14:09:08.223Z,32.24
2022-08-26T14:11:54.561Z,32.32
2022-08-26T14:14:27.147Z,32.35
2022-08-26T14:17:00.535Z,32.36
2022-08-26T14:19:33.121Z,32.35
2022-08-26T14:22:05.528Z,32.31
2022-08-26T14:24:37.528Z,32.30
2022-08-26T14:27:10.004Z,32.27
2022-08-26T14:29:42.356Z,32.22
2022-08-26T14:32:22.915Z,32.18
2022-08-26T14:34:56.074Z,32.11
2022-08-26T14:37:28.251Z,32.04
2022-08-26T14:40:00.444Z,32.00
2022-08-26T14:42:34.155Z,31.99
2022-08-26T14:45:09.424Z,32.02
2022-08-26T14:47:42.090Z,32.02
2022-08-26T14:50:17.556Z,32.03
2022-08-26T14:53:09.631Z,31.97
2022-08-26T14:55:42.466Z,31.92
2022-08-26T14:58:14.703Z,31.86
2022-08-26T15:00:46.863Z,31.81
2022-08-26T15:05:56.113Z,31.70
2022-08-26T15:08:28.247Z,31.65
2022-08-26T15:11:00.444Z,31.65
2022-08-26T15:13:32.582Z,31.66
2022-08-26T15:16:04.699Z,31.71
2022-08-26T15:18:37.269Z,31.72
2022-08-26T15:21:09.260Z,31.71
2022-08-26T15:23:42.479Z,31.72
2022-08-26T15:26:20.644Z,31.71
2022-08-26T15:28:52.966Z,31.67
2022-08-26T15:31:31.061Z,31.62
2022-08-26T15:34:07.297Z,31.57
2022-08-26T15:36:39.545Z,31.51
2022-08-26T15:39:12.196Z,31.46
2022-08-26T15:41:44.855Z,31.41
2022-08-26T15:44:19.295Z,31.34
2022-08-26T15:46:54.250Z,31.25
2022-08-26T15:49:28.837Z,31.19
2022-08-26T15:52:04.237Z,31.01
2022-08-26T15:54:37.848Z,30.74
2022-08-26T15:57:15.351Z,30.45
2022-08-26T15:59:48.612Z,30.25
2022-08-26T16:02:21.530Z,30.13
2022-08-26T16:04:53.857Z,29.96
2022-08-26T16:07:27.032Z,29.84
2022-08-26T16:09:59.159Z,29.74
2022-08-26T16:12:31.226Z,29.69
2022-08-26T16:15:03.950Z,29.68
2022-08-26T16:17:35.918Z,29.69
2022-08-26T16:20:08.948Z,29.70
2022-08-26T16:22:41.209Z,29.65
2022-08-26T16:25:13.287Z,29.56
2022-08-26T16:27:45.428Z,29.48
2022-08-26T16:30:19.344Z,29.46
2022-08-26T16:32:51.878Z,29.45
2022-08-26T16:35:24.512Z,29.40
2022-08-26T16:37:56.685Z,29.31
2022-08-26T16:40:29.721Z,29.28
2022-08-26T16:43:03.050Z,29.21
2022-08-26T16:45:38.119Z,29.18
2022-08-26T16:48:14.154Z,29.17
2022-08-26T16:50:46.564Z,29.13
2022-08-26T16:53:19.271Z,29.06
2022-08-26T16:55:51.716Z,28.94
2022-08-26T16:58:23.901Z,28.80
2022-08-26T17:00:56.740Z,28.71
2022-08-26T17:03:28.752Z,28.65
2022-08-26T17:06:01.181Z,28.65
2022-08-26T17:08:33.380Z,28.65
2022-08-26T17:11:06.094Z,28.67
2022-08-26T17:13:39.288Z,28.69
2022-08-26T17:16:12.576Z,28.72
2022-08-26T17:18:44.880Z,28.64
2022-08-26T17:21:17.322Z,28.53
2022-08-26T17:23:49.345Z,28.35
2022-08-26T17:26:21.303Z,28.22
2022-08-26T17:28:53.983Z,28.12
2022-08-26T17:31:27.033Z,28.00
2022-08-26T17:33:59.067Z,27.91
2022-08-26T17:36:31.448Z,27.77
2022-08-26T17:39:03.809Z,27.66
2022-08-26T17:41:35.946Z,27.58
2022-08-26T17:44:08.171Z,27.46
2022-08-26T17:46:40.209Z,27.37
2022-08-26T17:49:12.306Z,27.28
2022-08-26T17:51:44.308Z,27.23
2022-08-26T17:54:16.476Z,27.19
2022-08-26T17:56:48.378Z,27.13
2022-08-26T17:59:20.927Z,27.09
2022-08-26T18:01:54.627Z,27.06
2022-08-26T18:04:27.176Z,27.01
2022-08-26T18:06:59.294Z,26.96
2022-08-26T18:09:32.595Z,26.93
2022-08-26T18:12:05.209Z,26.89
2022-08-26T18:14:37.233Z,26.86
2022-08-26T18:17:09.123Z,26.84
2022-08-26T18:22:15.621Z,26.80
2022-08-26T18:24:52.776Z,26.77
2022-08-26T18:27:30.598Z,26.75
2022-08-26T18:30:06.711Z,26.73
2022-08-26T18:32:38.602Z,26.72
2022-08-26T18:35:11.312Z,26.73
2022-08-26T18:37:44.444Z,26.71
2022-08-26T18:40:16.786Z,26.67
2022-08-26T18:42:54.186Z,26.62
2022-08-26T18:45:26.404Z,26.59
2022-08-26T18:47:58.512Z,26.57
2022-08-26T18:50:30.442Z,26.56
2022-08-26T18:53:02.876Z,26.54
2022-08-26T18:55:35.023Z,26.52
2022-08-26T18:58:07.042Z,26.49
2022-08-26T19:00:39.072Z,26.47
2022-08-26T19:03:18.422Z,26.44
2022-08-26T19:05:51.161Z,26.43
2022-08-26T19:08:23.393Z,26.40
2022-08-26T19:10:55.358Z,26.32
2022-08-26T19:13:27.366Z,26.28
2022-08-26T19:15:59.392Z,26.25
2022-08-26T19:18:32.438Z,26.20
2022-08-26T19:21:06.525Z,26.17
2022-08-26T19:23:38.830Z,26.12
2022-08-26T19:26:14.634Z,26.08
2022-08-26T19:28:48.223Z,26.05
2022-08-26T19:31:20.296Z,26.01
2022-08-26T19:33:52.595Z,25.99
2022-08-26T19:36:25.885Z,25.96
2022-08-26T19:38:58.167Z,25.94
2022-08-26T19:41:36.531Z,25.90
2022-08-26T19:44:33.669Z,25.84
2022-08-26T19:47:08.275Z,25.76
2022-08-26T19:49:40.377Z,25.71
2022-08-26T19:52:12.454Z,25.67
2022-08-26T19:54:44.594Z,25.61
2022-08-26T19:57:17.087Z,25.55
2022-08-26T19:59:49.088Z,25.48
2022-08-26T20:02:21.113Z,25.41
2022-08-26T20:04:53.515Z,25.38
2022-08-26T20:07:25.631Z,25.34
2022-08-26T20:10:03.240Z,25.30
2022-08-26T20:12:35.786Z,25.25
2022-08-26T20:15:09.942Z,25.22
2022-08-26T20:17:41.992Z,25.22
2022-08-26T20:20:33.946Z,25.23
2022-08-26T20:23:06.160Z,25.24
2022-08-26T20:25:38.143Z,25.25
2022-08-26T20:28:10.220Z,25.26
2022-08-26T20:30:42.294Z,25.28
2022-08-26T20:33:14.432Z,25.30
2022-08-26T20:35:46.904Z,25.34
2022-08-26T20:38:21.565Z,25.34
2022-08-26T20:40:54.216Z,25.35
2022-08-26T20:43:28.475Z,25.33
2022-08-26T20:46:00.941Z,25.32
2022-08-26T20:48:33.027Z,25.27
2022-08-26T20:51:05.588Z,25.20
2022-08-26T20:53:37.758Z,25.17
2022-08-26T20:56:10.746Z,25.15
2022-08-26T20:58:42.949Z,25.13
2022-08-26T21:01:19.878Z,25.11
2022-08-26T21:03:55.726Z,25.09
2022-08-26T21:06:27.707Z,25.08
2022-08-26T21:09:01.438Z,25.05
2022-08-26T21:11:34.319Z,25.02
2022-08-26T21:14:16.055Z,25.01
2022-08-26T21:16:49.351Z,24.97
2022-08-26T21:19:21.569Z,24.94
2022-08-26T21:21:53.768Z,24.90
2022-08-26T21:24:25.985Z,24.86
2022-08-26T21:26:58.284Z,24.84
2022-08-26T21:29:30.564Z,24.78
2022-08-26T21:32:02.973Z,24.75
2022-08-26T21:34:34.879Z,24.70
2022-08-26T21:37:13.311Z,24.66
2022-08-26T21:39:48.876Z,24.61
2022-08-26T21:42:21.537Z,24.59
2022-08-26T21:44:53.838Z,24.55
2022-08-26T21:47:26.132Z,24.53
2022-08-26T21:49:58.662Z,24.48
2022-08-26T21:52:30.646Z,24.42
2022-08-26T21:55:03.926Z,24.39
2022-08-26T21:57:41.038Z,24.37
2022-08-26T22:00:15.750Z,24.35
2022-08-26T22:02:50.212Z,24.34
2022-08-26T22:05:22.209Z,24.33
2022-08-26T22:07:54.493Z,24.30
2022-08-26T22:10:26.424Z,24.29
2022-08-26T22:12:58.509Z,24.30
2022-08-26T22:15:32.980Z,24.28
2022-08-26T22:18:06.070Z,24.28
2022-08-26T22:20:38.450Z,24.29
2022-08-26T22:23:10.961Z,24.29
2022-08-26T22:25:43.130Z,24.27
2022-08-26T22:28:15.848Z,24.27
2022-08-26T22:30:48.402Z,24.25
2022-08-26T22:33:20.353Z,24.19
2022-08-26T22:35:53.053Z,24.16
2022-08-26T22:38:25.032Z,24.12
2022-08-26T22:41:00.271Z,24.11
2022-08-26T22:43:32.769Z,24.13
2022-08-26T22:46:08.425Z,24.13
2022-08-26T22:48:40.363Z,24.09
2022-08-26T22:51:12.433Z,24.08
2022-08-26T22:53:45.238Z,24.02
2022-08-26T22:56:19.046Z,24.00
2022-08-26T22:58:51.252Z,23.98
2022-08-26T23:01:23.908Z,23.95
2022-08-26T23:03:56.060Z,23.95
2022-08-26T23:06:27.994Z,23.95
2022-08-26T23:08:59.956Z,23.94
2022-08-26T23:11:32.136Z,23.94
2022-08-26T23:14:06.192Z,23.93
2022-08-26T23:16:41.680Z,23.96
2022-08-26T23:19:14.682Z,23.96
2022-08-26T23:21:46.987Z,23.97
2022-08-26T23:24:18.923Z,23.99
2022-08-26T23:26:50.885Z,23.99
2022-08-26T23:29:22.940Z,23.98
2022-08-26T23:31:55.191Z,23.93
2022-08-26T23:34:46.128Z,23.93
2022-08-26T23:37:20.570Z,23.90
2022-08-26T23:39:54.824Z,23.88
2022-08-26T23:42:26.812Z,23.82
2022-08-26T23:45:03.650Z,23.80
2022-08-26T23:47:35.714Z,23.79
2022-08-26T23:50:08.983Z,23.77
2022-08-26T23:52:59.412Z,23.79
2022-08-26T23:55:38.767Z,23.81
2022-08-26T23:58:11.317Z,23.83
